Time;durP1;ratioP1;P1;durP2;ratioP2;P2;SDS_P1;SDS_P2;PMS_P1;PMS_P2;Temp;Humidity;BMP_temperature;BMP_pressure;BME280_temperature;BME280_humidity;BME280_pressure;Samples;Min_cycle;Max_cycle;Signal;HPM_P1;HPM_P2
2020/12/01 00:02:19;;;;;;;44.13;24.00;;;1.10;99.90;;;;;;5048984;28;20120;-76
2020/12/01 00:04:45;;;;;;;43.17;23.42;;;1.10;99.90;;;;;;5048058;28;20025;-75
2020/12/01 00:07:10;;;;;;;45.08;24.45;;;1.20;99.90;;;;;;5048596;28;20025;-78
2020/12/01 00:09:37;;;;;;;42.55;23.33;;;1.20;99.90;;;;;;5038901;28;20030;-77
2020/12/01 00:12:03;;;;;;;44.75;23.85;;;1.20;99.90;;;;;;5030121;28;20085;-79
2020/12/01 00:14:29;;;;;;;44.83;23.20;;;1.10;99.90;;;;;;5027823;28;20079;-78
2020/12/01 00:16:54;;;;;;;44.40;23.48;;;1.20;99.90;;;;;;5028990;28;20099;-77
2020/12/01 00:19:20;;;;;;;42.15;24.30;;;1.30;99.90;;;;;;5030796;28;20118;-78
2020/12/01 00:21:46;;;;;;;48.55;24.13;;;1.20;99.90;;;;;;5029310;28;20333;-79
2020/12/01 00:24:12;;;;;;;41.35;23.40;;;1.30;99.90;;;;;;5031901;28;20096;-79
2020/12/01 00:26:37;;;;;;;47.22;24.02;;;1.30;99.90;;;;;;5034356;28;20117;-78
2020/12/01 00:29:03;;;;;;;45.75;23.25;;;1.30;99.90;;;;;;5034566;28;20103;-79
2020/12/01 00:31:29;;;;;;;42.97;23.58;;;1.30;99.90;;;;;;5034139;28;20037;-79
2020/12/01 00:33:55;;;;;;;46.92;24.35;;;1.30;99.90;;;;;;5034146;28;20377;-75
2020/12/01 00:36:26;;;;;;;43.35;24.00;;;1.20;99.90;;;;;;5034073;28;20069;-78
2020/12/01 00:38:52;;;;;;;41.95;22.55;;;1.20;99.90;;;;;;5034692;28;20026;-76
2020/12/01 00:41:17;;;;;;;47.65;24.30;;;1.20;99.90;;;;;;5033734;28;20036;-78
2020/12/01 00:43:43;;;;;;;47.30;25.65;;;1.20;99.90;;;;;;5033530;28;20120;-77
2020/12/01 00:46:09;;;;;;;42.83;22.40;;;1.20;99.90;;;;;;5033033;28;20472;-77
2020/12/01 00:48:35;;;;;;;47.92;23.75;;;1.20;99.90;;;;;;5032285;28;20037;-76
2020/12/01 00:51:01;;;;;;;44.28;23.70;;;1.10;99.90;;;;;;5034181;28;20232;-77
2020/12/01 00:53:26;;;;;;;45.55;24.00;;;1.20;99.90;;;;;;5033917;28;20026;-78
2020/12/01 00:55:52;;;;;;;46.33;23.95;;;1.20;99.90;;;;;;5033683;28;20100;-78
2020/12/01 00:58:17;;;;;;;47.42;24.27;;;1.20;99.90;;;;;;5033100;28;20030;-76
2020/12/01 01:00:44;;;;;;;44.22;22.98;;;1.20;99.90;;;;;;5033744;28;20106;-79
2020/12/01 01:03:10;;;;;;;46.88;24.73;;;1.30;99.90;;;;;;5033712;28;20029;-76
2020/12/01 01:05:35;;;;;;;48.33;24.25;;;1.20;99.90;;;;;;5045393;28;20179;-77
2020/12/01 01:08:01;;;;;;;45.17;23.83;;;1.20;99.90;;;;;;5053842;28;20090;-78
2020/12/01 01:10:31;;;;;;;50.72;24.70;;;1.20;99.90;;;;;;5051841;28;20079;-79
2020/12/01 01:12:57;;;;;;;48.75;24.50;;;1.20;99.90;;;;;;5053763;28;20029;-78
2020/12/01 01:15:24;;;;;;;44.72;23.40;;;1.20;99.90;;;;;;5051819;28;20389;-78
2020/12/01 01:17:50;;;;;;;46.88;23.65;;;1.10;99.90;;;;;;5051508;28;20029;-78
2020/12/01 01:20:16;;;;;;;43.85;23.73;;;1.20;99.90;;;;;;5052572;28;20078;-77
2020/12/01 01:22:41;;;;;;;43.30;23.63;;;1.20;99.90;;;;;;5051797;28;20031;-77
2020/12/01 01:25:07;;;;;;;47.35;25.15;;;1.20;99.90;;;;;;5050774;28;20029;-79
2020/12/01 01:27:33;;;;;;;48.28;24.15;;;1.20;99.90;;;;;;5052652;28;20486;-78
2020/12/01 01:29:59;;;;;;;42.53;21.95;;;1.10;99.90;;;;;;5052812;28;20025;-78
2020/12/01 01:32:24;;;;;;;45.15;23.60;;;1.10;99.90;;;;;;5052369;28;20112;-78
2020/12/01 01:34:50;;;;;;;46.30;25.80;;;1.10;99.90;;;;;;5051190;28;20024;-76
2020/12/01 01:37:16;;;;;;;47.00;25.17;;;1.20;99.90;;;;;;5052922;28;20064;-78
2020/12/01 01:39:41;;;;;;;41.85;23.60;;;1.20;99.90;;;;;;5052311;28;20053;-78
2020/12/01 01:42:08;;;;;;;45.63;24.92;;;1.20;99.90;;;;;;5050974;28;20086;-78
2020/12/01 01:44:34;;;;;;;39.90;22.52;;;1.30;99.90;;;;;;5051407;28;20028;-78
2020/12/01 01:47:19;;;;;;;40.58;21.95;;;1.40;99.90;;;;;;5052639;28;20120;-77
2020/12/01 01:49:47;;;;;;;39.85;22.95;;;1.40;99.90;;;;;;5031432;28;20026;-78
2020/12/01 01:52:17;;;;;;;44.03;23.02;;;1.50;99.90;;;;;;5032790;28;20040;-77
2020/12/01 01:54:46;;;;;;;41.45;21.83;;;1.50;99.90;;;;;;5031144;28;20033;-77
2020/12/01 01:57:12;;;;;;;40.22;21.83;;;1.60;99.90;;;;;;5032763;28;20029;-78
2020/12/01 01:59:39;;;;;;;37.28;21.40;;;1.60;99.90;;;;;;5032784;28;20067;-78
2020/12/01 02:02:05;;;;;;;37.58;20.98;;;1.70;99.90;;;;;;5032321;28;20591;-76
2020/12/01 02:04:31;;;;;;;40.80;21.27;;;1.70;99.90;;;;;;5032096;28;20064;-75
2020/12/01 02:07:01;;;;;;;37.28;20.58;;;1.60;99.90;;;;;;5033110;28;20635;-78
2020/12/01 02:09:48;;;;;;;35.78;20.40;;;1.70;99.90;;;;;;5032664;28;20163;-79
2020/12/01 02:12:16;;;;;;;37.15;20.42;;;1.80;99.90;;;;;;5033426;28;20124;-78
2020/12/01 02:14:44;;;;;;;37.75;20.40;;;;;;;;;;5044010;28;20033;-79
2020/12/01 02:17:16;;;;;;;35.75;20.00;;;;;;;;;;5053233;28;20159;-78
2020/12/01 02:19:43;;;;;;;37.70;20.40;;;;;;;;;;5051522;28;20036;-76
2020/12/01 02:22:12;;;;;;;38.58;20.85;;;;;;;;;;5052382;28;20060;-78
2020/12/01 02:24:38;;;;;;;37.53;19.85;;;;;;;;;;5050339;28;20022;-78
2020/12/01 02:27:04;;;;;;;37.42;21.20;;;1.70;99.90;;;;;;5050948;28;20032;-75
2020/12/01 02:29:31;;;;;;;37.30;20.30;;;;;;;;;;5050592;28;20021;-76
2020/12/01 02:31:58;;;;;;;39.35;21.90;;;;;;;;;;5052346;28;20040;-78
2020/12/01 02:34:31;;;;;;;41.17;21.02;;;;;;;;;;5051427;28;20098;-79
2020/12/01 02:36:57;;;;;;;39.53;21.67;;;;;;;;;;5051263;28;20384;-75
2020/12/01 02:39:24;;;;;;;40.30;20.73;;;;;;;;;;5051997;28;20037;-77
2020/12/01 02:41:52;;;;;;;40.43;22.47;;;;;;;;;;5052053;28;20483;-79
2020/12/01 02:44:18;;;;;;;38.78;20.92;;;;;;;;;;5051918;28;20079;-77
2020/12/01 02:46:44;;;;;;;40.75;21.90;;;;;;;;;;5051545;28;20059;-78
2020/12/01 02:49:10;;;;;;;36.08;21.67;;;;;;;;;;5052622;28;20693;-77
2020/12/01 02:51:36;;;;;;;40.28;22.40;;;;;;;;;;5051752;28;20111;-78
2020/12/01 02:54:03;;;;;;;41.70;22.00;;;;;;;;;;5050513;28;20116;-77
2020/12/01 02:56:29;;;;;;;43.53;22.52;;;;;;;;;;5052432;28;20096;-77
2020/12/01 02:58:55;;;;;;;43.45;22.88;;;;;;;;;;5051115;28;20075;-77
2020/12/01 03:01:21;;;;;;;42.85;22.88;;;;;;;;;;5053648;28;20017;-77
2020/12/01 03:03:47;;;;;;;43.33;22.60;;;;;;;;;;5055489;28;20029;-76
2020/12/01 03:06:14;;;;;;;41.03;22.88;;;;;;;;;;5055251;28;20035;-77
2020/12/01 03:08:41;;;;;;;39.63;22.20;;;;;;;;;;5053301;28;20039;-79
2020/12/01 03:11:07;;;;;;;39.50;21.65;;;;;;;;;;5054623;28;20085;-79
2020/12/01 03:13:33;;;;;;;37.75;21.45;;;;;;;;;;5054031;28;20348;-78
2020/12/01 03:16:05;;;;;;;41.30;21.65;;;;;;;;;;5053451;28;20032;-77
2020/12/01 03:18:31;;;;;;;42.38;23.08;;;;;;;;;;5055607;28;20097;-77
2020/12/01 03:20:57;;;;;;;39.25;21.20;;;;;;;;;;5053480;28;20078;-79
2020/12/01 03:23:23;;;;;;;39.65;21.35;;;;;;;;;;5052859;28;20029;-76
2020/12/01 03:25:49;;;;;;;41.38;21.90;;;;;;;;;;5050455;28;20446;-78
2020/12/01 03:28:15;;;;;;;40.72;22.67;;;;;;;;;;5049208;28;20021;-77
2020/12/01 03:30:41;;;;;;;44.25;23.23;;;;;;;;;;5050658;28;20017;-78
2020/12/01 03:33:07;;;;;;;41.78;21.63;;;;;;;;;;5050391;28;20499;-76
2020/12/01 03:35:35;;;;;;;40.10;22.40;;;;;;;;;;5050205;28;20037;-77
2020/12/01 03:38:01;;;;;;;39.13;21.10;;;;;;;;;;5050599;28;20027;-76
2020/12/01 03:40:27;;;;;;;38.42;21.25;;;;;;;;;;5050392;28;20032;-76
2020/12/01 03:42:53;;;;;;;36.80;20.98;;;;;;;;;;5050284;28;20116;-77
2020/12/01 03:45:19;;;;;;;42.92;21.85;;;;;;;;;;5048819;28;20032;-77
2020/12/01 03:47:45;;;;;;;40.38;21.00;;;;;;;;;;5050449;28;20021;-77
2020/12/01 03:50:12;;;;;;;40.60;21.23;;;;;;;;;;5050321;28;20028;-77
2020/12/01 03:52:38;;;;;;;43.83;22.05;;;;;;;;;;5050288;28;20029;-77
2020/12/01 03:55:05;;;;;;;41.70;22.10;;;;;;;;;;5049968;28;20039;-78
2020/12/01 03:57:40;;;;;;;37.92;20.95;;;;;;;;;;5050107;28;20029;-76
2020/12/01 04:00:06;;;;;;;37.67;20.45;;;;;;;;;;5050513;28;20029;-76
2020/12/01 04:02:32;;;;;;;36.95;20.50;;;;;;;;;;5048880;28;20037;-77
2020/12/01 04:04:59;;;;;;;37.25;21.02;;;;;;;;;;5044975;28;20039;-77
2020/12/01 04:07:25;;;;;;;37.67;22.05;;;;;;;;;;5028117;28;20022;-77
2020/12/01 04:09:51;;;;;;;42.80;22.25;;;;;;;;;;5027233;28;20024;-76
2020/12/01 04:12:17;;;;;;;41.35;21.27;;;;;;;;;;5036669;28;20028;-77
2020/12/01 04:14:43;;;;;;;39.53;21.15;;;;;;;;;;5048063;28;20502;-77
2020/12/01 04:17:09;;;;;;;42.17;22.52;;;;;;;;;;5046763;28;20021;-77
2020/12/01 04:19:35;;;;;;;37.85;20.52;;;;;;;;;;5046106;28;20376;-78
2020/12/01 04:22:01;;;;;;;37.83;21.63;;;;;;;;;;5045491;28;20021;-76
2020/12/01 04:24:27;;;;;;;39.03;21.33;;;;;;;;;;5047145;28;20533;-78
2020/12/01 04:26:53;;;;;;;39.70;20.92;;;;;;;;;;5047550;28;20040;-77
2020/12/01 04:29:19;;;;;;;41.00;21.38;;;;;;;;;;5046459;28;20026;-78
2020/12/01 04:31:45;;;;;;;42.25;23.02;;;;;;;;;;5047838;28;20105;-77
2020/12/01 04:34:11;;;;;;;42.03;23.10;;;;;;;;;;5047174;28;20104;-77
2020/12/01 04:36:37;;;;;;;43.35;22.55;;;;;;;;;;5046095;28;20119;-77
2020/12/01 04:39:03;;;;;;;42.53;22.50;;;;;;;;;;5047430;28;20029;-77
2020/12/01 04:41:29;;;;;;;41.55;22.85;;;;;;;;;;5047036;28;20029;-78
2020/12/01 04:43:57;;;;;;;40.53;22.35;;;;;;;;;;5047400;28;20028;-77
2020/12/01 04:46:25;;;;;;;41.55;23.27;;;;;;;;;;5047108;28;20103;-77
2020/12/01 04:48:55;;;;;;;42.28;22.45;;;;;;;;;;5047610;28;20036;-78
2020/12/01 04:51:31;;;;;;;37.63;21.50;;;;;;;;;;5047180;28;20035;-75
2020/12/01 04:54:16;;;;;;;38.75;22.30;;;;;;;;;;5046268;28;20663;-78
2020/12/01 04:57:02;;;;;;;37.00;21.33;;;;;;;;;;5047564;28;20028;-76
2020/12/01 04:59:34;;;;;;;37.17;19.88;;;;;;;;;;5046945;28;20036;-75
2020/12/01 05:02:15;;;;;;;38.22;21.60;;;;;;;;;;5045782;28;20025;-75
2020/12/01 05:04:43;;;;;;;35.92;20.08;;;;;;;;;;5047451;28;20028;-76
2020/12/01 05:07:29;;;;;;;34.30;19.02;;;;;;;;;;5047540;28;20021;-75
2020/12/01 05:09:58;;;;;;;35.92;19.25;;;;;;;;;;5047556;28;20539;-75
2020/12/01 05:12:24;;;;;;;32.83;18.70;;;;;;;;;;5050654;28;20063;-75
2020/12/01 05:14:53;;;;;;;34.05;18.45;;;;;;;;;;5050448;28;20415;-76
2020/12/01 05:17:38;;;;;;;36.05;19.23;;;;;;;;;;5049998;28;20567;-74
2020/12/01 05:20:05;;;;;;;32.03;19.08;;;;;;;;;;5051336;28;20032;-73
2020/12/01 05:22:31;;;;;;;32.63;19.05;;;;;;;;;;5050291;28;20596;-76
2020/12/01 05:24:57;;;;;;;32.92;18.38;;;;;;;;;;5050003;28;20029;-75
2020/12/01 05:27:31;;;;;;;31.30;18.20;;;;;;;;;;5050217;28;20029;-75
2020/12/01 05:30:33;;;;;;;32.28;18.55;;;;;;;;;;5050340;28;20029;-76
2020/12/01 05:33:07;;;;;;;31.23;18.00;;;;;;;;;;5047739;28;20051;-76
2020/12/01 05:35:34;;;;;;;37.03;18.20;;;;;;;;;;5032747;28;20033;-76
2020/12/01 05:38:02;;;;;;;30.60;16.95;;;;;;;;;;5030289;28;20053;-76
2020/12/01 05:40:29;;;;;;;30.17;18.10;;;;;;;;;;5042209;28;20021;-75
2020/12/01 05:42:56;;;;;;;29.98;17.30;;;;;;;;;;5047733;28;20035;-76
2020/12/01 05:45:25;;;;;;;33.63;17.25;;;;;;;;;;5050074;28;20158;-75
2020/12/01 05:47:55;;;;;;;31.65;16.63;;;;;;;;;;5049950;28;20566;-75
2020/12/01 05:50:23;;;;;;;29.23;16.40;;;;;;;;;;5049982;28;20040;-75
2020/12/01 05:52:49;;;;;;;30.42;16.13;;;;;;;;;;5049481;28;20025;-76
2020/12/01 05:55:17;;;;;;;27.60;15.60;;;;;;;;;;5049506;28;20040;-75
2020/12/01 05:57:43;;;;;;;29.92;16.02;;;;;;;;;;5050120;28;20029;-76
2020/12/01 06:00:18;;;;;;;27.73;15.63;;;;;;;;;;5049335;28;20017;-75
2020/12/01 06:03:03;;;;;;;29.55;16.30;;;;;;;;;;5049442;28;20033;-76
2020/12/01 06:05:29;;;;;;;31.23;16.85;;;;;;;;;;5047697;28;20025;-76
2020/12/01 06:07:57;;;;;;;31.92;16.85;;;;;;;;;;5049508;28;20025;-74
2020/12/01 06:10:23;;;;;;;32.85;16.70;;;;;;;;;;5049214;28;20163;-75
2020/12/01 06:12:52;;;;;;;33.72;17.75;;;;;;;;;;5049507;28;20583;-75
2020/12/01 06:15:19;;;;;;;30.70;16.80;;;;;;;;;;5049038;28;20035;-76
2020/12/01 06:17:54;;;;;;;33.50;18.20;;;;;;;;;;5049332;28;20032;-75
2020/12/01 06:20:29;;;;;;;31.58;15.95;;;;;;;;;;5047925;28;20033;-76
2020/12/01 06:23:01;;;;;;;26.77;15.13;;;;;;;;;;5049360;28;20049;-76
2020/12/01 06:25:27;;;;;;;25.42;15.57;;;;;;;;;;5049017;28;20025;-75
2020/12/01 06:28:08;;;;;;;28.33;15.98;;;;;;;;;;5049142;28;20100;-75
2020/12/01 06:30:53;;;;;;;25.25;14.82;;;;;;;;;;5049067;28;20023;-75
2020/12/01 06:33:36;;;;;;;25.02;14.05;;;;;;;;;;5047633;28;20021;-76
2020/12/01 06:36:21;;;;;;;24.55;13.75;;;;;;;;;;5047404;28;20029;-74
2020/12/01 06:38:53;;;;;;;22.58;13.40;;;;;;;;;;5049129;28;20025;-75
2020/12/01 06:41:21;;;;;;;23.13;13.02;;;;;;;;;;5047415;28;20024;-76
2020/12/01 06:43:56;;;;;;;27.30;13.88;;;;;;;;;;5048722;28;20053;-75
2020/12/01 06:46:37;;;;;;;22.05;12.15;;;;;;;;;;5048530;28;20179;-75
2020/12/01 06:49:04;;;;;;;24.05;11.95;;;;;;;;;;5047400;28;20052;-76
2020/12/01 06:51:31;;;;;;;19.77;10.88;;;;;;;;;;5048963;28;20021;-75
2020/12/01 06:54:05;;;;;;;19.77;10.10;;;;;;;;;;5047252;28;20051;-77
2020/12/01 06:56:31;;;;;;;18.63;10.20;;;;;;;;;;5048848;28;20025;-75
2020/12/01 06:59:04;;;;;;;15.88;9.57;;;;;;;;;;5048581;28;20084;-75
2020/12/01 07:01:32;;;;;;;17.45;8.23;;;;;;;;;;5048335;28;20032;-75
2020/12/01 07:03:58;;;;;;;;;;;;;;;;;;5048677;28;20039;-74
2020/12/01 07:06:24;;;;;;;16.00;7.07;;;;;;;;;;5048410;28;20003;-74
2020/12/01 07:08:50;;;;;;;12.63;6.57;;;;;;;;;;5048270;28;20033;-75
2020/12/01 07:11:29;;;;;;;14.10;6.80;;;;;;;;;;5046932;28;20113;-76
2020/12/01 07:13:58;;;;;;;16.02;6.85;;;;;;;;;;5048209;28;20033;-76
2020/12/01 07:16:29;;;;;;;12.25;5.80;;;;;;;;;;5046627;28;20044;-75
2020/12/01 07:19:06;;;;;;;11.13;6.00;;;;;;;;;;5046826;28;20471;-74
2020/12/01 07:21:39;;;;;;;11.63;5.38;;;;;;;;;;5046803;28;20081;-75
2020/12/01 07:24:25;;;;;;;11.32;5.88;;;;;;;;;;5046276;28;20040;-76
2020/12/01 07:27:11;;;;;;;9.93;4.97;;;;;;;;;;5047106;28;20017;-76
2020/12/01 07:29:46;;;;;;;14.20;7.20;;;;;;;;;;5046788;28;20028;-76
2020/12/01 07:32:16;;;;;;;14.05;6.72;;;;;;;;;;5047939;28;20460;-74
2020/12/01 07:34:42;;;;;;;12.65;6.60;;;;;;;;;;5047680;28;20100;-76
2020/12/01 07:37:15;;;;;;;8.77;5.55;;;;;;;;;;5048331;28;20100;-76
2020/12/01 07:39:49;;;;;;;11.77;6.07;;;;;;;;;;5048327;28;20503;-75
2020/12/01 07:42:20;;;;;;;9.57;5.85;;;;;;;;;;5047839;28;20472;-77
2020/12/01 07:44:46;;;;;;;11.65;6.60;;;;;;;;;;5047940;28;20020;-76
2020/12/01 07:47:14;;;;;;;10.27;6.00;;;;;;;;;;5048675;28;20033;-75
2020/12/01 07:49:40;;;;;;;12.27;5.95;;;;;;;;;;5048290;28;20048;-75
2020/12/01 07:52:15;;;;;;;8.80;5.80;;;;;;;;;;5047928;28;20024;-76
2020/12/01 07:54:43;;;;;;;12.10;6.32;;;;;;;;;;5047497;28;20903;-76
2020/12/01 07:57:20;;;;;;;14.32;6.30;;;;;;;;;;5047783;28;20021;-76
2020/12/01 07:59:47;;;;;;;13.57;5.40;;;;;;;;;;5047706;28;20024;-76
2020/12/01 08:02:14;;;;;;;11.25;5.80;;;;;;;;;;5047673;28;20027;-76
2020/12/01 08:04:40;;;;;;;10.45;6.28;;;;;;;;;;5045939;28;20051;-75
2020/12/01 08:07:06;;;;;;;10.50;6.05;;;;;;;;;;5046409;28;20487;-76
2020/12/01 08:09:32;;;;;;;9.88;6.35;;;;;;;;;;5047677;28;20017;-76
2020/12/01 08:12:00;;;;;;;13.55;6.15;;;;;;;;;;5047626;28;20082;-77
2020/12/01 08:14:27;;;;;;;10.32;6.00;;;;;;;;;;5045607;28;20035;-77
2020/12/01 08:17:12;;;;;;;14.65;6.70;;;;;;;;;;5047572;28;20053;-76
2020/12/01 08:19:38;;;;;;;13.68;8.38;;;;;;;;;;5045894;28;20128;-77
2020/12/01 08:22:05;;;;;;;13.93;8.02;;;;;;;;;;5045859;28;20021;-76
2020/12/01 08:24:32;;;;;;;16.35;7.40;;;;;;;;;;5046826;28;20691;-75
2020/12/01 08:27:04;;;;;;;14.38;7.70;;;;;;;;;;5047473;28;20052;-76
2020/12/01 08:29:32;;;;;;;12.98;7.30;;;;;;;;;;5046197;28;20021;-76
2020/12/01 08:32:17;;;;;;;18.73;10.48;;;;;;;;;;5045829;28;20036;-77
2020/12/01 08:35:02;;;;;;;19.50;9.35;;;;;;;;;;5046577;28;20067;-75
2020/12/01 08:37:41;;;;;;;15.65;8.38;;;;;;;;;;5046068;28;20021;-76
2020/12/01 08:40:26;;;;;;;11.55;7.10;;;;;;;;;;5047377;28;20053;-76
2020/12/01 08:43:18;;;;;;;12.98;7.07;;;;;;;;;;5045741;28;20030;-76
2020/12/01 08:45:52;;;;;;;12.10;6.47;;;;;;;;;;5047669;28;20107;-78
2020/12/01 08:48:26;;;;;;;12.23;7.00;;;;;;;;;;5051150;28;20091;-76
2020/12/01 08:51:00;;;;;;;12.73;7.70;;;;;;;;;;5051159;28;20035;-76
2020/12/01 08:53:26;;;;;;;12.77;7.85;;;;;;;;;;5050820;28;20029;-76
2020/12/01 08:55:55;;;;;;;12.43;6.43;;;;;;;;;;5050576;28;20032;-77
2020/12/01 08:58:33;;;;;;;10.88;6.65;;;;;;;;;;5049731;28;20025;-76
2020/12/01 09:00:59;;;;;;;11.05;6.60;;;;;;;;;;5051089;28;20021;-77
2020/12/01 09:03:26;;;;;;;11.93;6.38;;;;;;;;;;5050661;28;20037;-75
2020/12/01 09:05:52;;;;;;;11.18;6.45;;;;;;;;;;5050809;28;20032;-76
2020/12/01 09:08:41;;;;;;;11.38;6.85;;;;;;;;;;5049391;28;20028;-76
2020/12/01 09:13:57;;;;;;;26.48;8.48;;;;;;;;;;5051084;28;20037;-76
2020/12/01 09:22:05;;;;;;;11.57;6.72;;;;;;;;;;5050433;28;20514;-76
2020/12/01 09:24:31;;;;;;;11.45;6.63;;;;;;;;;;5049879;28;20032;-75
2020/12/01 09:27:07;;;;;;;11.93;6.82;;;;;;;;;;5050264;28;20017;-77
2020/12/01 09:29:34;;;;;;;12.45;7.05;;;;;;;;;;5050745;28;20369;-76
2020/12/01 09:32:00;;;;;;;13.00;7.10;;;;;;;;;;5050473;28;20120;-75
2020/12/01 09:34:29;;;;;;;11.10;7.15;;;;;;;;;;5050066;28;20879;-75
2020/12/01 09:36:56;;;;;;;11.30;6.93;;;;;;;;;;5050436;28;20435;-74
2020/12/01 09:39:22;;;;;;;12.48;7.20;;;;;;;;;;5049124;28;20021;-76
2020/12/01 09:41:59;;;;;;;11.50;6.80;;;;;;;;;;5050883;28;20025;-76
2020/12/01 09:47:16;;;;;;;11.35;6.72;;;;;;;;;;5050383;28;20043;-76
2020/12/01 09:49:42;;;;;;;11.20;6.88;;;;;;;;;;5048461;28;20017;-78
2020/12/01 09:52:22;;;;;;;13.98;7.05;;;;;;;;;;5050052;28;20025;-76
2020/12/01 09:55:02;;;;;;;10.85;7.20;;;;;;;;;;5049179;28;20079;-76
2020/12/01 10:11:19;;;;;;;13.45;8.00;;;;;;;;;;5031288;28;20028;-76
2020/12/01 10:21:37;;;;;;;9.98;5.93;;;;;;;;;;5049735;28;20029;-77
2020/12/01 10:36:36;;;;;;;11.40;6.07;;;;;;;;;;5050356;28;20062;-76
2020/12/01 10:39:02;;;;;;;8.75;5.40;;;;;;;;;;5049561;28;20025;-76
2020/12/01 10:41:29;;;;;;;10.02;5.93;;;;;;;;;;5049478;28;20377;-76
2020/12/01 10:43:55;;;;;;;16.10;5.78;;;;;;;;;;5049302;28;20021;-75
2020/12/01 10:46:21;;;;;;;10.00;5.72;;;;;;;;;;5048710;28;20025;-77
2020/12/01 10:48:47;;;;;;;9.13;5.32;;;;;;;;;;5049132;28;20033;-78
2020/12/01 10:51:13;;;;;;;8.98;5.80;;;;;;;;;;5048287;28;20619;-76
2020/12/01 10:53:39;;;;;;;33.22;6.70;;;;;;;;;;5047920;28;20020;-76
2020/12/01 10:56:05;;;;;;;13.63;7.88;;;;;;;;;;5048240;28;20043;-76
2020/12/01 10:58:31;;;;;;;12.73;7.30;;;;;;;;;;5048262;28;20029;-76
2020/12/01 11:00:57;;;;;;;18.98;7.60;;;;;;;;;;5049398;28;20090;-76
2020/12/01 11:03:23;;;;;;;27.27;7.85;;;;;;;;;;5048698;28;20033;-78
2020/12/01 11:05:49;;;;;;;155.50;16.23;;;;;;;;;;5045249;28;20371;-76
2020/12/01 11:08:15;;;;;;;67.43;11.50;;;;;;;;;;5048109;28;20021;-78
2020/12/01 11:10:42;;;;;;;98.57;12.50;;;;;;;;;;5048895;28;20029;-77
2020/12/01 11:13:09;;;;;;;28.08;5.65;;;;;;;;;;5047240;28;20376;-76
2020/12/01 11:15:35;;;;;;;19.52;5.57;;;;;;;;;;5048577;28;20032;-78
2020/12/01 11:18:01;;;;;;;9.45;5.60;;;;;;;;;;5049472;28;20591;-77
2020/12/01 11:20:27;;;;;;;8.88;5.95;;;;;;;;;;5048617;28;20029;-76
2020/12/01 11:22:53;;;;;;;14.07;6.20;;;;;;;;;;5050477;28;20028;-78
2020/12/01 11:25:20;;;;;;;11.43;5.70;;;;;;;;;;5047941;28;20021;-78
2020/12/01 11:27:48;;;;;;;13.02;6.82;;;;;;;;;;5048363;28;20051;-78
2020/12/01 11:30:16;;;;;;;13.02;7.60;;;;;;;;;;5048714;28;20125;-78
2020/12/01 11:32:42;;;;;;;13.32;7.40;;;;;;;;;;5049274;28;20033;-78
2020/12/01 11:35:08;;;;;;;9.52;6.43;;;;;;;;;;5047656;28;20553;-78
2020/12/01 11:37:34;;;;;;;9.40;5.80;;;;;;;;;;5049386;28;20113;-78
2020/12/01 11:40:00;;;;;;;10.02;6.30;;;;;;;;;;5049238;28;20116;-76
2020/12/01 11:42:26;;;;;;;10.85;5.28;;;;;;;;;;5049146;28;20499;-78
2020/12/01 11:44:52;;;;;;;7.63;4.90;;;;;;;;;;5036098;28;20025;-78
2020/12/01 11:47:18;;;;;;;8.45;4.93;;;;;;;;;;5027121;28;20025;-76
2020/12/01 11:49:44;;;;;;;7.47;4.45;;;;;;;;;;5027495;28;20034;-78
2020/12/01 11:52:10;;;;;;;6.72;4.05;;;;;;;;;;5028806;28;20492;-76
2020/12/01 11:54:37;;;;;;;7.65;4.50;;;;;;;;;;5027852;28;20029;-77
2020/12/01 11:57:03;;;;;;;7.40;4.47;;;;;;;;;;5028528;28;20159;-78
2020/12/01 11:59:29;;;;;;;8.35;4.40;;;;;;;;;;5031618;28;20033;-78
2020/12/01 12:01:55;;;;;;;5.38;3.67;;;;;;;;;;5033853;28;20033;-79
2020/12/01 12:04:21;;;;;;;9.10;6.40;;;;;;;;;;5049593;28;20040;-79
2020/12/01 12:06:48;;;;;;;18.05;11.57;;;;;;;;;;5050894;28;20452;-76
2020/12/01 12:09:14;;;;;;;16.85;10.90;;;;;;;;;;5050321;28;20524;-79
2020/12/01 12:11:40;;;;;;;14.43;7.50;;;;;;;;;;5051271;28;20032;-79
2020/12/01 12:14:06;;;;;;;14.50;7.13;;;;;;;;;;5049046;28;20025;-77
2020/12/01 12:16:33;;;;;;;10.98;7.00;;;;;;;;;;5049232;28;20029;-79
2020/12/01 12:18:59;;;;;;;11.27;7.70;;;;;;;;;;5050404;28;20025;-79
2020/12/01 12:21:25;;;;;;;18.80;10.10;;;;;;;;;;5052887;28;20418;-78
2020/12/01 12:23:51;;;;;;;13.45;6.53;;;;;;;;;;5055742;28;20029;-76
2020/12/01 12:26:18;;;;;;;21.13;8.77;;;;;;;;;;5054120;28;20118;-78
2020/12/01 12:28:44;;;;;;;21.42;10.30;;;;;;;;;;5052731;28;20035;-78
2020/12/01 12:31:12;;;;;;;12.68;7.50;;;;;;;;;;5034163;28;20022;-74
2020/12/01 12:33:38;;;;;;;26.08;7.82;;;;;;;;;;5032155;28;20040;-74
2020/12/01 12:36:04;;;;;;;20.25;8.80;;;;;;;;;;5032602;28;20056;-77
2020/12/01 12:38:30;;;;;;;17.33;8.98;;;;;;;;;;5036603;28;20029;-78
2020/12/01 12:40:57;;;;;;;20.40;9.30;;;;;;;;;;5051722;28;20043;-78
2020/12/01 12:43:24;;;;;;;11.45;6.78;;;;;;;;;;5053812;28;20483;-78
2020/12/01 12:45:50;;;;;;;8.32;5.82;;;;;;;;;;5051688;28;20036;-76
2020/12/01 12:48:16;;;;;;;8.73;5.50;;;;;;;;;;5050395;28;20422;-76
2020/12/01 12:50:42;;;;;;;8.63;4.72;;;;;;;;;;5052812;28;20613;-78
2020/12/01 12:53:08;;;;;;;6.82;4.18;;;;;;;;;;5051580;28;20024;-79
2020/12/01 12:55:34;;;;;;;5.88;3.90;;;;;;;;;;5050895;28;20035;-78
2020/12/01 12:58:00;;;;;;;8.23;4.45;;;;;;;;;;5053152;28;20483;-75
2020/12/01 13:00:27;;;;;;;8.00;4.57;;;;;;;;;;5053039;28;20059;-76
2020/12/01 13:02:53;;;;;;;9.77;5.60;;;;;;;;;;5052648;28;20368;-77
2020/12/01 13:05:20;;;;;;;11.55;6.97;;;;;;;;;;5052236;28;20112;-78
2020/12/01 13:07:46;;;;;;;8.10;4.80;;;;;;;;;;5052767;28;20103;-79
2020/12/01 13:10:12;;;;;;;5.90;3.67;;;;;;;;;;5052522;28;20025;-77
2020/12/01 13:12:38;;;;;;;5.30;3.67;;;;;;;;;;5054326;28;20021;-78
2020/12/01 13:15:04;;;;;;;6.50;3.67;;;;;;;;;;5053516;28;20588;-79
2020/12/01 13:17:30;;;;;;;6.85;4.95;;;;;;;;;;5053679;28;20032;-77
2020/12/01 13:19:56;;;;;;;9.75;5.50;;;;;;;;;;5052926;28;20021;-77
2020/12/01 13:22:22;;;;;;;7.90;5.15;;;;;;;;;;5053874;28;20044;-78
2020/12/01 13:24:48;;;;;;;10.55;6.18;;;;;;;;;;5053460;28;20476;-79
2020/12/01 13:27:14;;;;;;;14.40;9.77;;;;;;;;;;5052262;28;20035;-79
2020/12/01 13:29:40;;;;;;;10.50;6.10;;;;;;;;;;5053342;28;20120;-78
2020/12/01 13:32:06;;;;;;;8.60;5.53;;;;;;;;;;5050918;28;20060;-78
2020/12/01 13:34:32;;;;;;;23.40;16.65;;;;;;;;;;5051271;28;20083;-79
2020/12/01 13:36:58;;;;;;;14.00;9.02;;;;;;;;;;5053659;28;20037;-78
2020/12/01 13:39:24;;;;;;;9.02;5.82;;;;;;;;;;5052987;28;20104;-77
2020/12/01 13:41:52;;;;;;;7.82;4.32;;;;;;;;;;5052670;28;20488;-78
2020/12/01 13:44:18;;;;;;;7.75;4.68;;;;;;;;;;5051529;28;20025;-77
2020/12/01 13:46:44;;;;;;;8.65;5.35;;;;;;;;;;5053282;28;20052;-77
2020/12/01 13:49:14;;;;;;;9.30;5.35;;;;;;;;;;5052682;28;20032;-78
2020/12/01 13:51:41;;;;;;;8.60;5.35;;;;;;;;;;5052792;28;20017;-78
2020/12/01 13:54:07;;;;;;;9.48;5.97;;;;;;;;;;5051033;28;20103;-76
2020/12/01 13:56:33;;;;;;;8.88;6.10;;;;;;;;;;5051675;28;20032;-78
2020/12/01 13:58:59;;;;;;;8.05;5.25;;;;;;;;;;5053782;28;20021;-79
2020/12/01 14:01:26;;;;;;;8.73;4.60;;;;;;;;;;5051176;28;20025;-77
2020/12/01 14:03:52;;;;;;;11.52;5.07;;;;;;;;;;5049807;28;20029;-77
2020/12/01 14:06:18;;;;;;;9.50;5.50;;;;;;;;;;5050050;28;20059;-76
2020/12/01 14:08:45;;;;;;;6.72;4.13;;;;;;;;;;5050271;28;20029;-76
2020/12/01 14:11:14;;;;;;;6.70;4.45;;;;;;;;;;5050770;28;20471;-76
2020/12/01 14:13:41;;;;;;;7.70;4.30;;;;;;;;;;5049668;28;20032;-76
2020/12/01 14:16:07;;;;;;;6.35;4.43;;;;;;;;;;5049640;28;20033;-76
2020/12/01 14:18:33;;;;;;;6.22;3.65;;;;;;;;;;5049819;28;20028;-76
2020/12/01 14:21:00;;;;;;;5.70;3.85;;;;;;;;;;5048422;28;20033;-76
2020/12/01 14:23:26;;;;;;;6.85;3.30;;;;;;;;;;5048276;28;20179;-77
2020/12/01 14:25:53;;;;;;;5.25;3.05;;;;;;;;;;5047811;28;20169;-76
2020/12/01 14:28:19;;;;;;;4.65;3.22;;;;;;;;;;5049579;28;20040;-76
2020/12/01 14:30:45;;;;;;;5.05;3.30;;;;;;;;;;5048259;28;20080;-76
2020/12/01 14:33:11;;;;;;;6.88;3.20;;;;;;;;;;5049985;28;20032;-75
2020/12/01 14:35:38;;;;;;;4.18;2.50;;;;;;;;;;5048086;28;20021;-77
2020/12/01 14:38:03;;;;;;;4.25;2.40;;;;;;;;;;5049516;28;20028;-76
2020/12/01 14:40:29;;;;;;;4.68;2.38;;;;;;;;;;5048457;28;20032;-76
2020/12/01 14:43:01;;;;;;;6.38;2.70;;;;;;;;;;5050167;28;20025;-77
2020/12/01 14:45:28;;;;;;;3.75;2.47;;;;;;;;;;5048051;28;20025;-77
2020/12/01 14:48:12;;;;;;;5.25;2.60;;;;;;;;;;5050627;28;20460;-74
2020/12/01 14:50:41;;;;;;;4.57;2.40;;;;;;;;;;5049243;28;20021;-75
2020/12/01 14:53:07;;;;;;;5.72;2.38;;;;;;;;;;5049678;28;20036;-75
2020/12/01 14:55:45;;;;;;;4.15;2.55;;;;;;;;;;5048413;28;20100;-76
2020/12/01 14:58:26;;;;;;;3.53;2.40;;;;;;;;;;5050779;28;20108;-76
2020/12/01 15:01:00;;;;;;;3.50;2.38;;;;;;;;;;5051052;28;20082;-73
2020/12/01 15:03:35;;;;;;;4.72;2.85;;;;;;;;;;5050301;28;20507;-76